8°C Temp
3°C Dewpoint
% Humidity
Temperature
19 KM/H
12 MPH
10 KTS
280°
Due West

Wind Speed
Partly Cloudy
Conditions
Pressure 995.92 (hPa) - 29.41 (in)
Visibility 6.2 (mi) - 10.0 (km)

Current Conditions
BIRK
Location 8(km)
Metar :BIRK 171500Z 28010KT 9999 FEW022 SCT031 BKN038 08/03 Q0996
Fri 17th September 15:00 pm

Airport
  Metar Aviation API Data Provided by https://www.checkwx.com/ PHP scripts by weather34.com ©2021